Time;durP1;ratioP1;P1;durP2;ratioP2;P2;SDS_P1;SDS_P2;PMS_P1;PMS_P2;Temp;Humidity;BMP_temperature;BMP_pressure;BME280_temperature;BME280_humidity;BME280_pressure;Samples;Min_cycle;Max_cycle;Signal;HPM_P1;HPM_P2
2023/10/08 00:00:46;;;;;;;7.47;5.53;;;22.10;71.80;;;;;;6278274;27;89009;-72
2023/10/08 00:03:50;;;;;;;7.60;4.32;;;22.10;71.60;;;;;;6275610;27;89210;-73
2023/10/08 00:06:52;;;;;;;5.35;3.67;;;22.10;71.80;;;;;;6276263;27;89180;-71
2023/10/08 00:09:55;;;;;;;5.88;3.83;;;22.10;72.30;;;;;;6277320;27;89036;-74
2023/10/08 00:12:57;;;;;;;5.50;3.92;;;22.20;73.10;;;;;;6280288;27;89052;-77
2023/10/08 00:15:59;;;;;;;6.95;4.25;;;22.20;73.30;;;;;;6283096;27;89110;-75
2023/10/08 00:19:08;;;;;;;4.75;3.80;;;22.20;74.20;;;;;;6284793;27;88252;-76
2023/10/08 00:22:13;;;;;;;5.03;3.72;;;22.20;74.00;;;;;;6284135;27;87878;-77
2023/10/08 00:25:16;;;;;;;14.27;7.00;;;22.20;74.50;;;;;;6282903;27;88952;-77
2023/10/08 00:28:18;;;;;;;11.77;5.97;;;22.20;75.90;;;;;;6271120;27;90013;-76
2023/10/08 00:31:24;;;;;;;11.65;7.13;;;22.20;75.60;;;;;;6285861;27;89588;-78
2023/10/08 00:34:27;;;;;;;6.47;4.25;;;22.20;76.10;;;;;;6273876;27;88956;-77
2023/10/08 00:37:29;;;;;;;4.93;3.78;;;22.30;73.50;;;;;;6280595;27;88976;-76
2023/10/08 00:40:38;;;;;;;7.20;4.10;;;22.20;73.30;;;;;;6281031;27;89349;-72
2023/10/08 00:43:40;;;;;;;5.47;3.90;;;22.20;73.30;;;;;;6279518;27;89440;-75
2023/10/08 00:46:47;;;;;;;6.93;3.83;;;22.20;72.50;;;;;;6283979;27;88861;-73
2023/10/08 00:53:21;;;;;;;7.85;3.60;;;22.20;73.30;;;;;;6275567;27;88549;-73
2023/10/08 00:56:25;;;;;;;6.30;3.65;;;22.20;73.10;;;;;;6277791;27;87842;-72
2023/10/08 00:59:33;;;;;;;5.50;3.80;;;22.20;73.30;;;;;;6295315;27;89994;-71
2023/10/08 01:02:45;;;;;;;7.32;4.00;;;22.20;73.70;;;;;;6282369;27;89151;-72
2023/10/08 01:05:49;;;;;;;6.13;3.42;;;22.20;73.00;;;;;;6283236;27;89055;-71
2023/10/08 01:08:54;;;;;;;8.45;3.53;;;22.20;73.70;;;;;;6281658;27;88936;-72
2023/10/08 01:12:15;;;;;;;5.65;3.58;;;22.20;73.80;;;;;;6289343;27;89409;-71
2023/10/08 01:15:23;;;;;;;6.35;3.40;;;22.20;73.40;;;;;;6284103;27;89085;-71
2023/10/08 01:18:31;;;;;;;6.60;3.50;;;22.20;73.80;;;;;;6280901;27;89509;-74
2023/10/08 01:21:39;;;;;;;8.65;3.45;;;22.20;73.50;;;;;;6281130;27;87224;-74
2023/10/08 01:24:43;;;;;;;8.10;3.60;;;22.20;73.70;;;;;;6279126;27;91389;-74
2023/10/08 01:27:46;;;;;;;5.13;3.47;;;22.20;73.70;;;;;;6281860;27;88917;-73
2023/10/08 01:30:53;;;;;;;5.70;3.35;;;22.20;73.80;;;;;;6286816;27;90149;-73
2023/10/08 01:33:56;;;;;;;6.35;3.28;;;22.20;73.60;;;;;;6282829;27;89067;-73
2023/10/08 01:37:03;;;;;;;6.10;3.20;;;22.20;73.80;;;;;;6274158;27;89294;-73
2023/10/08 01:40:09;;;;;;;7.00;3.17;;;22.10;73.70;;;;;;6277338;27;89417;-74
2023/10/08 01:43:13;;;;;;;10.00;4.57;;;22.10;73.40;;;;;;6278795;27;89218;-73
2023/10/08 01:46:16;;;;;;;5.25;3.33;;;22.20;73.30;;;;;;6283496;27;88020;-72
2023/10/08 01:49:22;;;;;;;7.32;3.78;;;22.10;73.30;;;;;;6271300;27;89113;-74
2023/10/08 01:52:24;;;;;;;5.57;3.38;;;22.20;73.30;;;;;;6281608;27;88679;-73
2023/10/08 01:55:33;;;;;;;8.35;3.30;;;22.10;73.30;;;;;;6279616;27;88904;-74
2023/10/08 01:58:35;;;;;;;4.97;3.33;;;22.20;73.80;;;;;;6280423;27;89394;-74
2023/10/08 02:01:39;;;;;;;6.65;3.50;;;22.20;73.80;;;;;;6281417;27;90063;-73
2023/10/08 02:04:40;;;;;;;7.60;3.42;;;22.20;73.90;;;;;;6295075;27;89301;-74
2023/10/08 02:07:44;;;;;;;6.35;3.35;;;22.10;73.70;;;;;;6275341;27;88003;-71
2023/10/08 02:10:47;;;;;;;7.40;3.42;;;22.10;73.60;;;;;;6273767;27;89193;-74
2023/10/08 02:13:51;;;;;;;9.23;3.20;;;22.10;74.00;;;;;;6282047;27;88998;-74
2023/10/08 02:16:56;;;;;;;6.30;3.20;;;22.10;73.70;;;;;;6283184;27;88931;-74
2023/10/08 02:19:58;;;;;;;7.75;3.28;;;22.10;73.30;;;;;;6270556;27;89057;-74
2023/10/08 02:23:00;;;;;;;8.15;3.63;;;22.10;73.30;;;;;;6279450;27;88258;-73
2023/10/08 02:26:03;;;;;;;6.32;3.50;;;22.10;73.70;;;;;;6280260;27;89194;-73
2023/10/08 02:29:10;;;;;;;6.63;2.97;;;22.10;73.60;;;;;;6263773;27;89379;-73
2023/10/08 02:32:12;;;;;;;6.13;3.25;;;22.10;73.20;;;;;;6275353;27;90141;-74
2023/10/08 02:35:14;;;;;;;6.93;3.33;;;22.10;73.30;;;;;;6278875;27;89034;-74
2023/10/08 02:38:21;;;;;;;7.68;4.00;;;22.10;73.20;;;;;;6279631;27;89186;-73
2023/10/08 02:41:25;;;;;;;7.85;3.45;;;22.10;73.00;;;;;;6272057;27;89320;-74
2023/10/08 02:44:27;;;;;;;6.70;3.53;;;22.10;73.00;;;;;;6280967;27;88964;-74
2023/10/08 02:47:29;;;;;;;7.40;3.55;;;22.10;73.40;;;;;;6277940;27;89332;-73
2023/10/08 02:50:32;;;;;;;6.40;3.15;;;22.10;73.10;;;;;;6282079;27;88986;-74
2023/10/08 02:53:35;;;;;;;6.00;3.45;;;22.10;72.80;;;;;;6277386;27;88292;-74
2023/10/08 02:56:38;;;;;;;7.82;4.05;;;22.10;72.50;;;;;;6280874;27;89116;-74
2023/10/08 02:59:43;;;;;;;6.28;3.67;;;22.10;72.70;;;;;;6270874;27;89035;-73
2023/10/08 03:02:46;;;;;;;5.57;3.40;;;22.10;72.90;;;;;;6281751;27;89198;-73
2023/10/08 03:05:50;;;;;;;9.35;3.67;;;22.10;72.20;;;;;;6279416;27;87931;-74
2023/10/08 03:08:52;;;;;;;6.18;3.40;;;22.10;72.10;;;;;;6279512;27;87964;-74
2023/10/08 03:11:58;;;;;;;6.80;3.33;;;22.10;72.40;;;;;;6281201;27;89012;-74
2023/10/08 03:15:12;;;;;;;5.07;3.33;;;22.10;72.60;;;;;;6275457;27;89444;-73
2023/10/08 03:18:15;;;;;;;7.63;3.50;;;22.10;72.10;;;;;;6281071;27;89140;-74
2023/10/08 03:21:21;;;;;;;11.70;3.90;;;22.10;71.80;;;;;;6277302;27;89159;-74
2023/10/08 03:27:44;;;;;;;7.15;3.20;;;22.00;72.00;;;;;;6279924;27;88858;-73
2023/10/08 03:30:51;;;;;;;8.55;3.35;;;22.00;72.00;;;;;;6280333;27;88249;-73
2023/10/08 03:33:53;;;;;;;8.30;3.50;;;22.10;72.40;;;;;;6278390;27;90314;-74
2023/10/08 03:37:05;;;;;;;9.30;4.22;;;22.00;72.70;;;;;;6278103;27;89263;-73
2023/10/08 03:40:24;;;;;;;7.22;3.63;;;22.00;72.70;;;;;;6278976;27;88428;-73
2023/10/08 03:43:43;;;;;;;7.65;3.05;;;22.10;72.80;;;;;;6272211;27;89082;-73
2023/10/08 03:46:46;;;;;;;7.85;3.28;;;22.10;72.70;;;;;;6280428;27;89310;-73
2023/10/08 03:49:50;;;;;;;7.97;3.90;;;22.00;73.00;;;;;;6280308;27;88963;-73
2023/10/08 03:52:52;;;;;;;5.18;3.38;;;22.00;73.00;;;;;;6284309;27;88948;-72
2023/10/08 03:55:55;;;;;;;6.90;3.40;;;22.10;73.20;;;;;;6283712;27;88372;-73
2023/10/08 03:59:00;;;;;;;7.07;3.78;;;22.10;72.90;;;;;;6283997;27;89107;-72
2023/10/08 04:02:13;;;;;;;7.75;3.42;;;22.00;72.50;;;;;;6277975;27;87909;-72
2023/10/08 04:05:19;;;;;;;7.03;3.72;;;22.00;72.50;;;;;;6275722;27;90108;-73
2023/10/08 04:08:24;;;;;;;6.85;3.78;;;22.00;72.30;;;;;;6286094;27;89088;-73
2023/10/08 04:11:30;;;;;;;7.45;3.42;;;22.00;72.70;;;;;;6284643;27;93946;-73
2023/10/08 04:14:34;;;;;;;8.07;3.58;;;22.00;72.70;;;;;;6269755;27;91076;-72
2023/10/08 04:17:43;;;;;;;8.00;3.20;;;22.00;72.50;;;;;;6281022;27;87665;-73
2023/10/08 04:21:00;;;;;;;6.28;3.67;;;22.00;72.50;;;;;;6284243;27;88767;-73
2023/10/08 04:24:08;;;;;;;6.18;3.65;;;22.00;73.00;;;;;;6282797;27;89100;-72
2023/10/08 04:27:10;;;;;;;7.10;3.63;;;22.00;73.20;;;;;;6284570;27;88577;-74
2023/10/08 04:30:14;;;;;;;8.68;3.80;;;22.00;73.20;;;;;;6284634;27;89029;-73
2023/10/08 04:33:19;;;;;;;8.52;3.90;;;22.00;72.90;;;;;;6283888;27;89003;-73
2023/10/08 04:36:21;;;;;;;6.53;3.30;;;22.00;73.30;;;;;;6280422;27;90198;-72
2023/10/08 04:39:31;;;;;;;7.78;3.95;;;22.00;73.30;;;;;;6284480;27;87618;-73
2023/10/08 04:42:33;;;;;;;8.05;3.70;;;22.00;73.30;;;;;;6284614;27;89553;-73
2023/10/08 04:45:37;;;;;;;6.63;3.35;;;22.00;73.40;;;;;;6283916;27;89229;-73
2023/10/08 04:48:43;;;;;;;7.82;3.65;;;22.00;73.50;;;;;;6284421;27;89071;-74
2023/10/08 04:51:46;;;;;;;7.32;3.63;;;22.00;73.50;;;;;;6283650;27;89136;-74
2023/10/08 04:54:54;;;;;;;7.75;3.75;;;22.00;73.70;;;;;;6283381;27;88967;-73
2023/10/08 04:57:56;;;;;;;7.82;3.38;;;22.00;73.40;;;;;;6283333;27;88313;-73
2023/10/08 05:00:59;;;;;;;7.40;3.80;;;22.00;73.30;;;;;;6283511;27;89070;-72
2023/10/08 05:04:26;;;;;;;9.25;3.42;;;22.00;73.00;;;;;;6291724;27;89136;-72
2023/10/08 05:08:00;;;;;;;6.47;3.50;;;22.00;72.70;;;;;;6280420;27;90202;-73
2023/10/08 05:11:14;;;;;;;8.02;3.65;;;22.00;72.70;;;;;;6280610;27;89042;-72
2023/10/08 05:14:28;;;;;;;8.13;3.22;;;21.90;72.40;;;;;;6282345;27;89016;-73
2023/10/08 05:17:43;;;;;;;7.13;3.88;;;21.90;73.20;;;;;;6283718;27;87952;-72
2023/10/08 05:20:59;;;;;;;7.65;3.35;;;21.90;72.70;;;;;;6283229;27;88283;-74
2023/10/08 05:24:09;;;;;;;9.40;3.88;;;21.90;72.50;;;;;;6282465;27;89087;-72
2023/10/08 05:27:37;;;;;;;6.93;3.85;;;21.90;72.70;;;;;;6281880;27;89094;-73
2023/10/08 05:30:41;;;;;;;8.77;3.65;;;21.90;72.80;;;;;;6283464;27;88413;-73
2023/10/08 05:33:59;;;;;;;8.57;3.53;;;21.90;72.90;;;;;;6281382;27;88972;-73
2023/10/08 05:40:54;;;;;;;7.85;3.83;;;21.90;72.80;;;;;;6281206;27;90615;-72
2023/10/08 05:44:14;;;;;;;8.90;3.80;;;21.90;73.20;;;;;;6281027;27;88601;-72
2023/10/08 05:47:38;;;;;;;7.90;3.70;;;21.90;73.80;;;;;;6283595;27;89349;-71
2023/10/08 05:50:54;;;;;;;7.90;3.72;;;21.80;74.00;;;;;;6274189;27;89187;-73
2023/10/08 05:53:56;;;;;;;8.05;3.70;;;21.90;74.20;;;;;;6281225;27;88924;-72
2023/10/08 05:57:07;;;;;;;6.57;3.83;;;21.90;74.50;;;;;;6285150;27;87784;-73
2023/10/08 06:00:45;;;;;;;8.32;4.00;;;21.90;74.50;;;;;;6272402;27;89110;-72
2023/10/08 06:04:00;;;;;;;9.45;4.53;;;21.90;75.00;;;;;;6290741;27;88125;-73
2023/10/08 06:07:12;;;;;;;7.10;3.78;;;21.90;75.50;;;;;;6280510;27;89224;-73
2023/10/08 06:10:41;;;;;;;9.20;4.28;;;21.90;75.70;;;;;;6281124;27;89104;-73
2023/10/08 06:13:45;;;;;;;6.97;4.03;;;21.90;75.90;;;;;;6276114;27;88808;-73
2023/10/08 06:17:01;;;;;;;7.18;4.05;;;21.90;76.10;;;;;;6270268;27;89396;-72
2023/10/08 06:20:09;;;;;;;8.75;3.88;;;21.90;76.50;;;;;;6260550;27;89441;-74
2023/10/08 06:23:18;;;;;;;8.13;3.97;;;21.90;76.80;;;;;;6273616;27;88950;-73
2023/10/08 06:26:21;;;;;;;9.00;3.78;;;21.90;77.20;;;;;;6269670;27;88954;-73
2023/10/08 06:29:29;;;;;;;7.10;3.88;;;21.90;77.20;;;;;;6280301;27;88684;-72
2023/10/08 06:32:31;;;;;;;8.02;4.20;;;21.90;77.40;;;;;;6280433;27;89090;-73
2023/10/08 06:35:33;;;;;;;10.15;4.07;;;21.90;77.60;;;;;;6280703;27;87795;-73
2023/10/08 06:38:40;;;;;;;7.35;3.90;;;21.90;77.80;;;;;;6281673;27;89221;-73
2023/10/08 06:41:42;;;;;;;8.30;4.15;;;21.90;78.10;;;;;;6281377;27;89395;-72
2023/10/08 06:44:46;;;;;;;7.75;4.10;;;21.80;78.20;;;;;;6281347;27;89944;-73
2023/10/08 06:47:48;;;;;;;9.02;4.20;;;21.90;78.50;;;;;;6281341;27;89227;-73
2023/10/08 06:50:51;;;;;;;7.68;4.10;;;21.90;78.60;;;;;;6280592;27;89029;-73
2023/10/08 06:53:55;;;;;;;9.02;4.50;;;21.90;79.00;;;;;;6280694;27;88645;-72
2023/10/08 06:56:59;;;;;;;9.52;4.20;;;21.90;79.30;;;;;;6278819;27;89030;-73
2023/10/08 07:00:04;;;;;;;8.60;4.40;;;21.80;79.10;;;;;;6281146;27;89002;-73
2023/10/08 07:03:07;;;;;;;8.15;3.72;;;21.80;78.90;;;;;;6287267;27;89506;-72
2023/10/08 07:06:25;;;;;;;7.68;3.90;;;21.80;79.00;;;;;;6271168;27;87231;-74
2023/10/08 07:09:30;;;;;;;8.13;4.38;;;21.80;79.10;;;;;;6272133;27;89135;-72
2023/10/08 07:12:35;;;;;;;7.93;4.10;;;21.90;79.40;;;;;;6277263;27;89075;-72
2023/10/08 07:15:40;;;;;;;8.43;4.38;;;21.80;79.60;;;;;;6280023;27;88970;-73
2023/10/08 07:18:48;;;;;;;8.82;4.60;;;21.80;79.60;;;;;;6280544;27;89102;-73
2023/10/08 07:21:54;;;;;;;7.70;4.80;;;21.80;79.70;;;;;;6280719;27;89114;-73
2023/10/08 07:24:57;;;;;;;6.60;4.07;;;21.80;79.80;;;;;;6279900;27;88856;-73
2023/10/08 07:27:59;;;;;;;6.55;4.10;;;21.90;79.90;;;;;;6268697;27;89142;-73
2023/10/08 07:31:02;;;;;;;6.07;3.83;;;21.80;79.70;;;;;;6280418;27;88225;-73
2023/10/08 07:34:17;;;;;;;7.85;4.03;;;21.90;79.80;;;;;;6279950;27;89384;-73
2023/10/08 07:37:20;;;;;;;8.88;4.28;;;21.80;80.00;;;;;;6280578;27;88383;-71
2023/10/08 07:40:29;;;;;;;9.10;4.07;;;21.90;80.10;;;;;;6273358;27;89017;-73
2023/10/08 07:43:32;;;;;;;8.98;3.92;;;21.80;80.20;;;;;;6274283;27;88352;-73
2023/10/08 07:46:34;;;;;;;7.72;3.92;;;21.80;80.60;;;;;;6278882;27;90045;-73
2023/10/08 07:49:36;;;;;;;6.72;4.03;;;21.80;81.00;;;;;;6281402;27;89190;-74
2023/10/08 07:52:40;;;;;;;9.07;4.10;;;21.80;81.40;;;;;;6279615;27;89000;-74
2023/10/08 07:55:47;;;;;;;9.57;4.00;;;21.80;81.80;;;;;;6279884;27;88956;-72
2023/10/08 07:58:49;;;;;;;8.00;4.07;;;21.80;82.00;;;;;;6279969;27;89285;-73
2023/10/08 08:01:55;;;;;;;9.65;4.28;;;21.80;82.10;;;;;;6279232;27;89238;-73
2023/10/08 08:04:57;;;;;;;6.82;4.10;;;21.80;82.20;;;;;;6278046;27;89001;-73
2023/10/08 08:08:05;;;;;;;8.60;4.18;;;21.80;82.30;;;;;;6280959;27;88556;-73
2023/10/08 08:11:11;;;;;;;9.20;4.40;;;21.80;82.30;;;;;;6270881;27;89008;-73
2023/10/08 08:14:16;;;;;;;6.22;4.10;;;21.80;82.40;;;;;;6279963;27;89128;-73
2023/10/08 08:17:19;;;;;;;6.15;3.83;;;21.80;82.50;;;;;;6279570;27;90157;-73
2023/10/08 08:20:30;;;;;;;6.47;4.22;;;21.80;82.30;;;;;;6279302;27;88942;-73
2023/10/08 08:23:32;;;;;;;8.70;4.53;;;21.80;82.30;;;;;;6278814;27;88288;-73
2023/10/08 08:26:44;;;;;;;7.10;4.00;;;21.80;82.50;;;;;;6279676;27;88915;-74
2023/10/08 08:29:47;;;;;;;6.93;4.28;;;21.80;82.80;;;;;;6276146;27;89115;-73
2023/10/08 08:32:49;;;;;;;7.03;3.78;;;21.80;83.10;;;;;;6278678;27;89396;-73
2023/10/08 08:36:00;;;;;;;8.05;3.90;;;21.80;83.50;;;;;;6281993;27;87949;-73
2023/10/08 08:39:04;;;;;;;7.93;4.30;;;21.80;83.70;;;;;;6285358;27;88636;-73
2023/10/08 08:42:08;;;;;;;6.85;3.95;;;21.80;83.80;;;;;;6282213;27;89202;-73
2023/10/08 08:45:14;;;;;;;6.05;4.10;;;21.80;84.00;;;;;;6283342;27;89227;-72
2023/10/08 08:48:19;;;;;;;7.53;4.38;;;21.80;84.10;;;;;;6282002;27;90133;-73
2023/10/08 08:51:22;;;;;;;9.95;4.20;;;21.80;84.20;;;;;;6281962;27;87880;-73
2023/10/08 08:54:24;;;;;;;7.90;3.88;;;21.80;84.20;;;;;;6293110;27;88970;-73
2023/10/08 08:57:27;;;;;;;6.85;3.72;;;21.80;84.10;;;;;;6283030;27;88013;-74
2023/10/08 09:00:31;;;;;;;7.07;3.80;;;21.80;84.00;;;;;;6283754;27;89315;-73
2023/10/08 09:03:33;;;;;;;7.10;4.20;;;21.80;84.00;;;;;;6291742;27;88922;-73
2023/10/08 09:06:37;;;;;;;7.70;3.97;;;21.80;83.90;;;;;;6282416;27;88565;-73
2023/10/08 09:09:40;;;;;;;8.73;4.03;;;21.80;83.70;;;;;;6282664;27;88496;-73
2023/10/08 09:12:46;;;;;;;6.90;4.07;;;21.80;83.60;;;;;;6276500;27;89022;-72
2023/10/08 09:15:48;;;;;;;6.20;4.00;;;21.80;83.30;;;;;;6283098;27;88843;-73
2023/10/08 09:18:52;;;;;;;7.85;3.67;;;21.80;83.20;;;;;;6282588;27;89806;-73
2023/10/08 09:22:03;;;;;;;10.35;4.57;;;21.80;83.10;;;;;;6282433;27;89152;-74
2023/10/08 09:25:07;;;;;;;10.70;4.43;;;21.80;83.00;;;;;;6283660;27;87920;-73
2023/10/08 09:28:12;;;;;;;7.22;3.95;;;21.80;83.20;;;;;;6282357;27;89354;-74
2023/10/08 09:31:18;;;;;;;6.07;3.90;;;21.80;83.10;;;;;;6284377;27;89138;-72
2023/10/08 09:34:20;;;;;;;7.75;4.10;;;21.80;83.20;;;;;;6282131;27;91015;-73
2023/10/08 09:37:22;;;;;;;7.93;3.90;;;21.80;83.30;;;;;;6282021;27;89023;-73
2023/10/08 09:40:25;;;;;;;7.50;3.70;;;21.70;83.50;;;;;;6283117;27;88245;-72
2023/10/08 09:43:29;;;;;;;6.40;3.70;;;21.80;84.50;;;;;;6268344;27;88969;-72
2023/10/08 09:46:34;;;;;;;9.65;3.85;;;21.70;85.30;;;;;;6280823;27;89179;-72
2023/10/08 09:49:42;;;;;;;7.30;4.00;;;21.80;86.00;;;;;;6281548;27;89972;-72
2023/10/08 09:52:50;;;;;;;9.18;4.22;;;21.70;86.30;;;;;;6281365;27;89425;-72
2023/10/08 09:55:55;;;;;;;7.40;4.25;;;21.70;86.50;;;;;;6270969;27;89383;-72
2023/10/08 09:59:00;;;;;;;7.22;4.07;;;21.70;87.00;;;;;;6282870;27;89002;-72
2023/10/08 10:02:03;;;;;;;7.05;4.05;;;21.70;87.50;;;;;;6280940;27;89023;-72
2023/10/08 10:05:06;;;;;;;5.88;3.75;;;21.70;87.70;;;;;;6285618;27;88974;-72
2023/10/08 10:08:10;;;;;;;6.72;4.03;;;21.70;87.70;;;;;;6269146;27;88934;-72
2023/10/08 10:11:12;;;;;;;8.40;3.80;;;21.80;87.70;;;;;;6278744;27;88412;-72
2023/10/08 10:14:17;;;;;;;7.15;3.67;;;21.80;87.70;;;;;;6277000;27;88958;-71
2023/10/08 10:17:22;;;;;;;7.95;3.80;;;21.80;87.60;;;;;;6276910;27;89063;-71
2023/10/08 10:20:24;;;;;;;7.38;4.03;;;21.70;87.40;;;;;;6280057;27;90077;-72
2023/10/08 10:23:37;;;;;;;8.52;4.38;;;21.80;87.20;;;;;;6282025;27;89410;-72
2023/10/08 10:26:40;;;;;;;7.78;4.25;;;21.70;87.10;;;;;;6282171;27;89007;-72
2023/10/08 10:29:45;;;;;;;7.75;3.67;;;21.70;86.90;;;;;;6281901;27;89036;-71
2023/10/08 10:32:47;;;;;;;9.05;4.28;;;21.70;86.80;;;;;;6279132;27;87923;-71
2023/10/08 10:35:55;;;;;;;7.97;4.18;;;21.70;86.70;;;;;;6278413;27;88855;-71
2023/10/08 10:38:57;;;;;;;7.65;4.30;;;21.70;86.60;;;;;;6278165;27;89077;-71
2023/10/08 10:42:03;;;;;;;8.48;4.00;;;21.70;87.20;;;;;;6279628;27;88230;-71
2023/10/08 10:45:09;;;;;;;8.30;4.25;;;21.70;87.10;;;;;;6282277;27;89102;-73
2023/10/08 10:48:21;;;;;;;6.45;3.88;;;21.70;86.10;;;;;;6281445;27;89164;-72
2023/10/08 10:51:22;;;;;;;9.52;3.92;;;21.70;86.10;;;;;;6278464;27;90511;-72
2023/10/08 10:54:25;;;;;;;7.68;4.40;;;21.70;86.90;;;;;;6273558;27;87858;-72
2023/10/08 10:57:34;;;;;;;8.93;4.13;;;21.80;86.10;;;;;;6274403;27;89108;-72
2023/10/08 11:00:57;;;;;;;8.15;4.28;;;21.70;86.00;;;;;;6280759;27;89034;-72
2023/10/08 11:03:59;;;;;;;8.43;3.92;;;21.70;86.10;;;;;;6289004;27;89192;-72
2023/10/08 11:07:01;;;;;;;8.77;4.75;;;21.70;86.20;;;;;;6280819;27;89655;-71
2023/10/08 11:10:10;;;;;;;10.43;4.28;;;21.70;86.30;;;;;;6281506;27;88694;-73
2023/10/08 11:13:15;;;;;;;7.40;3.83;;;21.70;86.70;;;;;;6282183;27;88353;-73
2023/10/08 11:16:21;;;;;;;8.50;4.15;;;21.70;86.90;;;;;;6277771;27;87914;-72
2023/10/08 11:19:23;;;;;;;6.70;3.92;;;21.70;87.00;;;;;;6278892;27;89123;-73
2023/10/08 11:22:44;;;;;;;7.55;4.00;;;21.70;87.00;;;;;;6277793;27;89909;-73
2023/10/08 11:25:59;;;;;;;8.43;4.60;;;21.70;87.10;;;;;;6279798;27;87861;-72
2023/10/08 11:29:03;;;;;;;7.32;4.07;;;21.70;87.20;;;;;;6279360;27;89021;-70
2023/10/08 11:32:07;;;;;;;8.80;4.15;;;21.70;87.20;;;;;;6269196;27;89117;-73
2023/10/08 11:35:16;;;;;;;7.35;4.13;;;21.70;87.10;;;;;;6277154;27;89064;-73
2023/10/08 11:38:22;;;;;;;9.05;3.95;;;21.70;87.20;;;;;;6280043;27;89496;-71
2023/10/08 11:41:27;;;;;;;8.10;4.20;;;21.70;87.20;;;;;;6279428;27;88994;-72
2023/10/08 11:44:30;;;;;;;10.30;4.38;;;21.70;87.40;;;;;;6281082;27;87873;-73
2023/10/08 11:47:35;;;;;;;11.27;4.75;;;21.70;87.60;;;;;;6279333;27;89093;-73
2023/10/08 11:50:38;;;;;;;7.78;4.28;;;21.60;87.60;;;;;;6277149;27;89124;-73
2023/10/08 11:53:40;;;;;;;7.75;4.68;;;21.70;87.60;;;;;;6278863;27;90103;-73
2023/10/08 11:56:42;;;;;;;6.57;3.70;;;21.70;87.80;;;;;;6280160;27;87942;-72
2023/10/08 11:59:46;;;;;;;6.45;4.03;;;21.70;87.90;;;;;;6278469;27;87081;-72
2023/10/08 12:02:50;;;;;;;5.78;3.85;;;21.70;88.00;;;;;;6283009;27;89235;-72
2023/10/08 12:05:58;;;;;;;7.18;4.15;;;21.70;88.10;;;;;;6282163;27;89200;-72
2023/10/08 12:09:10;;;;;;;7.95;3.85;;;21.70;88.30;;;;;;6273439;27;89125;-73
2023/10/08 12:12:13;;;;;;;7.10;4.25;;;21.70;88.40;;;;;;6283946;27;89325;-72
2023/10/08 12:15:19;;;;;;;6.72;3.63;;;21.70;88.40;;;;;;6285356;27;88415;-72
2023/10/08 12:18:25;;;;;;;7.55;4.22;;;21.70;88.40;;;;;;6275673;27;88113;-72
2023/10/08 12:21:29;;;;;;;8.60;4.07;;;21.70;88.30;;;;;;6283711;27;88952;-72
2023/10/08 12:24:31;;;;;;;6.00;3.85;;;21.70;88.50;;;;;;6283095;27;90106;-71
2023/10/08 12:27:33;;;;;;;6.78;4.15;;;21.70;88.50;;;;;;6283000;27;89249;-71
2023/10/08 12:30:41;;;;;;;8.18;4.40;;;21.70;88.60;;;;;;6281678;27;89109;-71
2023/10/08 12:33:44;;;;;;;8.23;4.03;;;21.70;88.60;;;;;;6283325;27;89247;-72
2023/10/08 12:36:47;;;;;;;7.60;4.53;;;21.70;88.80;;;;;;6277986;27;88833;-71
2023/10/08 12:39:59;;;;;;;10.00;4.45;;;21.70;88.80;;;;;;6275492;27;89333;-72
2023/10/08 12:43:04;;;;;;;7.97;4.25;;;21.70;88.90;;;;;;6284311;27;89020;-72
2023/10/08 12:46:10;;;;;;;7.40;4.03;;;21.70;88.90;;;;;;6283304;27;88695;-71
2023/10/08 12:49:14;;;;;;;7.47;4.57;;;21.70;89.10;;;;;;6278700;27;89402;-72
2023/10/08 12:52:15;;;;;;;6.88;4.07;;;21.70;89.30;;;;;;6271730;27;88988;-72
2023/10/08 12:55:17;;;;;;;7.65;3.92;;;21.70;89.30;;;;;;6282734;27;90086;-71
2023/10/08 12:58:23;;;;;;;7.70;4.30;;;21.70;89.10;;;;;;6281113;27;88789;-72
2023/10/08 13:01:29;;;;;;;8.10;4.50;;;21.70;89.20;;;;;;6278418;27;89034;-74
2023/10/08 13:04:41;;;;;;;7.18;4.28;;;21.70;89.10;;;;;;6283267;27;87461;-72
2023/10/08 13:07:45;;;;;;;9.05;4.40;;;21.70;89.10;;;;;;6275380;27;88758;-75
2023/10/08 13:10:49;;;;;;;6.97;4.28;;;21.70;89.00;;;;;;6284663;27;88357;-74
2023/10/08 13:13:53;;;;;;;9.55;5.00;;;21.70;89.00;;;;;;6281667;27;88624;-74
2023/10/08 13:16:57;;;;;;;7.95;4.45;;;21.70;89.10;;;;;;6283367;27;87276;-74
2023/10/08 13:20:02;;;;;;;7.65;4.40;;;21.70;89.20;;;;;;6275318;27;87986;-74
2023/10/08 13:23:06;;;;;;;6.00;3.78;;;21.70;89.30;;;;;;6281339;27;90215;-74
2023/10/08 13:26:16;;;;;;;8.20;4.15;;;21.60;89.30;;;;;;6278690;27;87928;-75
2023/10/08 13:29:20;;;;;;;5.95;3.88;;;21.70;89.60;;;;;;6280282;27;88053;-71
2023/10/08 13:32:24;;;;;;;10.23;4.57;;;21.70;89.80;;;;;;6282247;27;87396;-72
2023/10/08 13:35:29;;;;;;;8.68;4.60;;;21.60;90.00;;;;;;6283043;27;87428;-72
2023/10/08 13:38:33;;;;;;;8.57;4.20;;;21.60;90.00;;;;;;6283170;27;88189;-71
2023/10/08 13:41:38;;;;;;;7.20;4.03;;;21.70;90.10;;;;;;6285804;27;89881;-73
2023/10/08 13:44:45;;;;;;;6.63;4.40;;;21.60;90.10;;;;;;6280638;27;88252;-72
2023/10/08 13:47:48;;;;;;;8.52;4.65;;;21.70;90.20;;;;;;6279935;27;87150;-70
2023/10/08 13:50:53;;;;;;;6.47;4.00;;;21.70;90.20;;;;;;6278498;27;87968;-71
2023/10/08 13:54:00;;;;;;;7.75;4.35;;;21.70;90.50;;;;;;6281869;27;88034;-73
2023/10/08 13:57:04;;;;;;;7.18;4.25;;;21.70;90.80;;;;;;6280759;27;88957;-77
2023/10/08 14:00:15;;;;;;;6.63;4.47;;;21.70;91.20;;;;;;6281466;27;87824;-77
2023/10/08 14:03:21;;;;;;;6.68;4.28;;;21.70;91.70;;;;;;6282545;27;88135;-78
2023/10/08 14:06:26;;;;;;;9.43;4.38;;;21.70;91.90;;;;;;6279352;27;88418;-76
2023/10/08 14:09:36;;;;;;;6.07;4.30;;;21.70;91.90;;;;;;6281010;27;88017;-76
2023/10/08 14:12:40;;;;;;;8.70;4.55;;;21.70;91.90;;;;;;6291053;27;88556;-77
2023/10/08 14:15:46;;;;;;;6.15;4.10;;;21.70;92.00;;;;;;6282034;27;88160;-76
2023/10/08 14:18:53;;;;;;;7.15;4.50;;;21.70;92.20;;;;;;6281944;27;87458;-77
2023/10/08 14:22:03;;;;;;;7.93;4.82;;;21.70;92.20;;;;;;6280555;27;88218;-77
2023/10/08 14:25:11;;;;;;;7.30;4.55;;;21.70;92.30;;;;;;6280458;27;88032;-75
2023/10/08 14:28:24;;;;;;;8.85;5.13;;;21.70;92.40;;;;;;6281139;27;89093;-76
2023/10/08 14:31:28;;;;;;;6.78;4.60;;;21.70;92.50;;;;;;6280685;27;88136;-76
2023/10/08 14:44:34;;;;;;;17.05;8.93;;;21.80;99.90;;;;;;6274026;27;87233;-74
2023/10/08 14:47:38;;;;;;;15.82;7.28;;;21.90;99.90;;;;;;6281715;27;88097;-74
2023/10/08 14:54:16;;;;;;;17.60;8.07;;;21.90;97.10;;;;;;6273668;27;87303;-76
2023/10/08 14:57:20;;;;;;;20.40;8.13;;;21.90;96.60;;;;;;6279475;27;88464;-76
2023/10/08 15:00:26;;;;;;;18.42;7.35;;;21.90;96.20;;;;;;6260115;27;88788;-73
2023/10/08 15:03:31;;;;;;;16.52;7.60;;;21.90;96.00;;;;;;6280698;27;88146;-73
2023/10/08 15:06:34;;;;;;;15.52;8.15;;;21.90;96.00;;;;;;6280538;27;88418;-73
2023/10/08 15:09:41;;;;;;;13.27;7.20;;;21.90;96.00;;;;;;6279310;27;88014;-73
2023/10/08 15:12:45;;;;;;;16.25;7.00;;;21.90;95.90;;;;;;6290260;27;88441;-72
2023/10/08 15:15:50;;;;;;;13.18;6.70;;;21.90;96.20;;;;;;6286090;27;87612;-71
2023/10/08 15:18:56;;;;;;;13.93;6.68;;;21.90;95.60;;;;;;6270754;27;87991;-72
2023/10/08 15:22:00;;;;;;;19.80;7.05;;;21.90;95.90;;;;;;6273892;27;86303;-72
2023/10/08 15:25:07;;;;;;;15.35;6.78;;;21.90;95.30;;;;;;6274792;27;87125;-71
2023/10/08 15:28:10;;;;;;;10.80;5.68;;;21.90;95.20;;;;;;6281023;27;87992;-72
2023/10/08 15:31:14;;;;;;;14.82;5.80;;;21.90;94.90;;;;;;6280506;27;88938;-71
2023/10/08 15:34:19;;;;;;;10.27;5.63;;;21.90;94.80;;;;;;6280371;27;88306;-73
2023/10/08 15:37:23;;;;;;;10.15;5.32;;;21.90;94.70;;;;;;6280280;27;87676;-71
2023/10/08 15:40:28;;;;;;;8.38;4.97;;;21.90;94.60;;;;;;6279653;27;88052;-72
2023/10/08 15:43:32;;;;;;;6.72;4.78;;;21.90;94.40;;;;;;6280179;27;88021;-72
2023/10/08 15:46:36;;;;;;;8.65;4.95;;;21.90;94.30;;;;;;6279887;27;88299;-72
2023/10/08 15:49:39;;;;;;;10.45;5.30;;;21.90;94.20;;;;;;6280457;27;88219;-72
2023/10/08 15:52:43;;;;;;;10.38;4.82;;;21.90;94.20;;;;;;6279663;27;87285;-72
2023/10/08 15:55:49;;;;;;;8.05;4.80;;;22.00;94.10;;;;;;6280563;27;87958;-72
2023/10/08 15:58:54;;;;;;;7.95;4.75;;;21.90;94.00;;;;;;6279594;27;90103;-71
2023/10/08 16:01:58;;;;;;;8.63;4.50;;;21.90;94.00;;;;;;6277401;27;91077;-71
2023/10/08 16:05:02;;;;;;;8.77;4.65;;;21.90;93.90;;;;;;6288152;27;88169;-70
2023/10/08 16:08:07;;;;;;;9.63;5.00;;;21.90;93.80;;;;;;6280060;27;88092;-72
2023/10/08 16:11:14;;;;;;;8.52;4.38;;;22.00;93.80;;;;;;6274770;27;88070;-72
2023/10/08 16:14:18;;;;;;;6.82;4.30;;;21.90;93.80;;;;;;6278727;27;87996;-71
2023/10/08 16:17:23;;;;;;;8.45;4.53;;;21.90;93.70;;;;;;6279760;27;87082;-72
2023/10/08 16:20:27;;;;;;;6.60;4.18;;;21.90;93.70;;;;;;6280176;27;87824;-72
2023/10/08 16:23:33;;;;;;;8.55;4.90;;;21.90;93.70;;;;;;6281218;27;87274;-72
2023/10/08 16:26:38;;;;;;;7.47;4.47;;;21.90;93.70;;;;;;6278789;27;88542;-73
2023/10/08 16:29:43;;;;;;;6.25;4.15;;;21.90;93.70;;;;;;6280585;27;89869;-73